Terminal Aerodrome Forecast
Issued by NWS

Home | Current Version | Previous Version | Graphics & Text | Print | Product List | Glossary On
Versions: 1 2 3 4 5 6 7 8 9 10 11 12 13 14 15 16 17 18 19 20 21 22 23 24 25
755
FTUS43 KGRB 301749
TAFMTW
TAF
KMTW 301749Z 3018/3118 04018G30KT 6SM -RA OVC007
      TEMPO 3018/3022 3SM -RASN BKN004
     FM302200 04019G33KT 4SM -RA OVC007
     FM310300 04018G30KT P6SM -DZ OVC008
     FM311000 03013G24KT P6SM OVC018
     FM311500 03013G25KT P6SM OVC070=

USA.gov is the U.S. government's official web portal to all federal, state and local government web resources and services.